sensor_id;sensor_type;location;lat;lon;timestamp;P1;durP1;ratioP1;P2;durP2;ratioP2
14143;SDS011;7152;48.348;10.980;2023-07-29T00:02:17;8.53;;;6.60;;
14143;SDS011;7152;48.348;10.980;2023-07-29T00:04:42;6.87;;;6.20;;
14143;SDS011;7152;48.348;10.980;2023-07-29T00:07:10;10.03;;;7.03;;
14143;SDS011;7152;48.348;10.980;2023-07-29T00:09:36;8.27;;;6.10;;
14143;SDS011;7152;48.348;10.980;2023-07-29T00:12:03;6.77;;;5.93;;
14143;SDS011;7152;48.348;10.980;2023-07-29T00:14:29;6.83;;;5.97;;
14143;SDS011;7152;48.348;10.980;2023-07-29T00:16:55;7.20;;;6.30;;
14143;SDS011;7152;48.348;10.980;2023-07-29T00:19:21;7.43;;;6.60;;
14143;SDS011;7152;48.348;10.980;2023-07-29T00:21:48;8.40;;;6.90;;
14143;SDS011;7152;48.348;10.980;2023-07-29T00:24:14;9.10;;;7.07;;
14143;SDS011;7152;48.348;10.980;2023-07-29T00:26:40;7.33;;;6.33;;
14143;SDS011;7152;48.348;10.980;2023-07-29T00:29:06;7.50;;;6.33;;
14143;SDS011;7152;48.348;10.980;2023-07-29T00:31:32;8.37;;;6.27;;
14143;SDS011;7152;48.348;10.980;2023-07-29T00:33:57;7.63;;;6.93;;
14143;SDS011;7152;48.348;10.980;2023-07-29T00:36:23;8.97;;;7.20;;
14143;SDS011;7152;48.348;10.980;2023-07-29T00:38:50;7.30;;;6.60;;
14143;SDS011;7152;48.348;10.980;2023-07-29T00:41:18;7.57;;;6.47;;
14143;SDS011;7152;48.348;10.980;2023-07-29T00:43:44;8.03;;;7.23;;
14143;SDS011;7152;48.348;10.980;2023-07-29T00:46:10;8.53;;;6.80;;
14143;SDS011;7152;48.348;10.980;2023-07-29T00:48:38;9.23;;;7.47;;
14143;SDS011;7152;48.348;10.980;2023-07-29T00:51:04;7.37;;;6.57;;
14143;SDS011;7152;48.348;10.980;2023-07-29T00:53:31;7.90;;;7.10;;
14143;SDS011;7152;48.348;10.980;2023-07-29T00:55:56;7.77;;;6.97;;
14143;SDS011;7152;48.348;10.980;2023-07-29T00:58:22;9.67;;;7.30;;
14143;SDS011;7152;48.348;10.980;2023-07-29T01:00:48;11.13;;;7.80;;
14143;SDS011;7152;48.348;10.980;2023-07-29T01:03:15;9.30;;;8.07;;
14143;SDS011;7152;48.348;10.980;2023-07-29T01:05:50;10.43;;;8.37;;
14143;SDS011;7152;48.348;10.980;2023-07-29T01:08:38;9.63;;;8.50;;
14143;SDS011;7152;48.348;10.980;2023-07-29T01:11:16;9.43;;;8.43;;
14143;SDS011;7152;48.348;10.980;2023-07-29T01:13:53;10.30;;;7.77;;
14143;SDS011;7152;48.348;10.980;2023-07-29T01:16:34;8.80;;;7.90;;
14143;SDS011;7152;48.348;10.980;2023-07-29T01:19:15;11.10;;;8.07;;
14143;SDS011;7152;48.348;10.980;2023-07-29T01:21:51;10.77;;;8.40;;
14143;SDS011;7152;48.348;10.980;2023-07-29T01:24:17;11.30;;;8.53;;
14143;SDS011;7152;48.348;10.980;2023-07-29T01:26:43;8.80;;;7.73;;
14143;SDS011;7152;48.348;10.980;2023-07-29T01:29:09;11.77;;;7.83;;
14143;SDS011;7152;48.348;10.980;2023-07-29T01:31:37;8.90;;;7.33;;
14143;SDS011;7152;48.348;10.980;2023-07-29T01:36:40;7.93;;;6.93;;
14143;SDS011;7152;48.348;10.980;2023-07-29T01:39:08;9.67;;;8.00;;
14143;SDS011;7152;48.348;10.980;2023-07-29T01:41:38;10.47;;;7.43;;
14143;SDS011;7152;48.348;10.980;2023-07-29T01:44:07;11.80;;;8.20;;
14143;SDS011;7152;48.348;10.980;2023-07-29T01:46:34;10.20;;;7.97;;
14143;SDS011;7152;48.348;10.980;2023-07-29T01:48:59;9.50;;;7.70;;
14143;SDS011;7152;48.348;10.980;2023-07-29T01:51:25;8.57;;;7.60;;
14143;SDS011;7152;48.348;10.980;2023-07-29T01:53:51;8.20;;;7.33;;
14143;SDS011;7152;48.348;10.980;2023-07-29T01:56:17;8.77;;;7.17;;
14143;SDS011;7152;48.348;10.980;2023-07-29T01:58:50;9.07;;;7.17;;
14143;SDS011;7152;48.348;10.980;2023-07-29T02:01:16;7.20;;;6.43;;
14143;SDS011;7152;48.348;10.980;2023-07-29T02:03:43;7.73;;;6.93;;
14143;SDS011;7152;48.348;10.980;2023-07-29T02:06:09;10.90;;;7.53;;
14143;SDS011;7152;48.348;10.980;2023-07-29T02:08:35;8.87;;;7.37;;
14143;SDS011;7152;48.348;10.980;2023-07-29T02:11:00;8.83;;;6.77;;
14143;SDS011;7152;48.348;10.980;2023-07-29T02:13:26;8.23;;;7.33;;
14143;SDS011;7152;48.348;10.980;2023-07-29T02:15:52;8.17;;;7.37;;
14143;SDS011;7152;48.348;10.980;2023-07-29T02:18:18;8.50;;;7.50;;
14143;SDS011;7152;48.348;10.980;2023-07-29T02:20:44;11.30;;;8.57;;
14143;SDS011;7152;48.348;10.980;2023-07-29T02:23:14;10.97;;;8.47;;
14143;SDS011;7152;48.348;10.980;2023-07-29T02:25:44;10.40;;;8.50;;
14143;SDS011;7152;48.348;10.980;2023-07-29T02:28:10;9.60;;;8.47;;
14143;SDS011;7152;48.348;10.980;2023-07-29T02:30:36;12.00;;;8.10;;
14143;SDS011;7152;48.348;10.980;2023-07-29T02:33:06;10.37;;;8.23;;
14143;SDS011;7152;48.348;10.980;2023-07-29T02:35:32;8.57;;;7.73;;
14143;SDS011;7152;48.348;10.980;2023-07-29T02:37:58;8.63;;;7.13;;
14143;SDS011;7152;48.348;10.980;2023-07-29T02:40:24;9.57;;;7.37;;
14143;SDS011;7152;48.348;10.980;2023-07-29T02:42:52;8.40;;;6.77;;
14143;SDS011;7152;48.348;10.980;2023-07-29T02:45:18;7.53;;;6.10;;
14143;SDS011;7152;48.348;10.980;2023-07-29T02:47:44;9.63;;;6.43;;
14143;SDS011;7152;48.348;10.980;2023-07-29T02:50:09;8.03;;;5.87;;
14143;SDS011;7152;48.348;10.980;2023-07-29T02:52:35;7.63;;;6.00;;
14143;SDS011;7152;48.348;10.980;2023-07-29T02:55:01;8.17;;;6.37;;
14143;SDS011;7152;48.348;10.980;2023-07-29T02:57:27;7.10;;;6.40;;
14143;SDS011;7152;48.348;10.980;2023-07-29T02:59:53;9.17;;;6.70;;
14143;SDS011;7152;48.348;10.980;2023-07-29T03:02:18;6.73;;;6.00;;
14143;SDS011;7152;48.348;10.980;2023-07-29T03:04:44;6.73;;;5.77;;
14143;SDS011;7152;48.348;10.980;2023-07-29T03:07:10;7.20;;;5.30;;
14143;SDS011;7152;48.348;10.980;2023-07-29T03:09:37;9.43;;;6.37;;
14143;SDS011;7152;48.348;10.980;2023-07-29T03:12:02;6.77;;;6.17;;
14143;SDS011;7152;48.348;10.980;2023-07-29T03:14:28;8.67;;;5.90;;
14143;SDS011;7152;48.348;10.980;2023-07-29T03:16:54;6.97;;;6.27;;
14143;SDS011;7152;48.348;10.980;2023-07-29T03:19:20;6.83;;;6.00;;
14143;SDS011;7152;48.348;10.980;2023-07-29T03:21:47;7.40;;;5.53;;
14143;SDS011;7152;48.348;10.980;2023-07-29T03:24:13;7.00;;;5.57;;
14143;SDS011;7152;48.348;10.980;2023-07-29T03:26:38;6.93;;;5.47;;
14143;SDS011;7152;48.348;10.980;2023-07-29T03:29:04;6.57;;;5.70;;
14143;SDS011;7152;48.348;10.980;2023-07-29T03:31:30;7.50;;;5.53;;
14143;SDS011;7152;48.348;10.980;2023-07-29T03:33:56;6.07;;;5.17;;
14143;SDS011;7152;48.348;10.980;2023-07-29T03:36:22;8.07;;;5.57;;
14143;SDS011;7152;48.348;10.980;2023-07-29T03:38:50;6.57;;;4.77;;
14143;SDS011;7152;48.348;10.980;2023-07-29T03:41:16;5.77;;;4.90;;
14143;SDS011;7152;48.348;10.980;2023-07-29T03:43:42;6.40;;;4.83;;
14143;SDS011;7152;48.348;10.980;2023-07-29T03:46:08;8.47;;;5.67;;
14143;SDS011;7152;48.348;10.980;2023-07-29T03:48:34;7.63;;;5.20;;
14143;SDS011;7152;48.348;10.980;2023-07-29T03:51:00;6.20;;;5.10;;
14143;SDS011;7152;48.348;10.980;2023-07-29T03:53:26;5.07;;;4.57;;
14143;SDS011;7152;48.348;10.980;2023-07-29T03:55:52;7.73;;;5.13;;
14143;SDS011;7152;48.348;10.980;2023-07-29T03:58:18;5.70;;;4.87;;
14143;SDS011;7152;48.348;10.980;2023-07-29T04:00:44;8.20;;;4.80;;
14143;SDS011;7152;48.348;10.980;2023-07-29T04:03:09;5.23;;;4.67;;
14143;SDS011;7152;48.348;10.980;2023-07-29T04:05:35;4.90;;;4.50;;
14143;SDS011;7152;48.348;10.980;2023-07-29T04:08:02;5.50;;;4.30;;
14143;SDS011;7152;48.348;10.980;2023-07-29T04:10:28;6.07;;;5.13;;
14143;SDS011;7152;48.348;10.980;2023-07-29T04:12:56;7.70;;;4.80;;
14143;SDS011;7152;48.348;10.980;2023-07-29T04:15:22;5.50;;;4.70;;
14143;SDS011;7152;48.348;10.980;2023-07-29T04:17:48;7.03;;;4.63;;
14143;SDS011;7152;48.348;10.980;2023-07-29T04:20:14;5.97;;;4.97;;
14143;SDS011;7152;48.348;10.980;2023-07-29T04:22:40;6.43;;;4.87;;
14143;SDS011;7152;48.348;10.980;2023-07-29T04:25:06;5.07;;;4.57;;
14143;SDS011;7152;48.348;10.980;2023-07-29T04:27:32;5.27;;;4.77;;
14143;SDS011;7152;48.348;10.980;2023-07-29T04:29:58;6.20;;;4.80;;
14143;SDS011;7152;48.348;10.980;2023-07-29T04:32:23;6.97;;;4.70;;
14143;SDS011;7152;48.348;10.980;2023-07-29T04:34:49;4.93;;;4.40;;
14143;SDS011;7152;48.348;10.980;2023-07-29T04:37:15;5.07;;;4.43;;
14143;SDS011;7152;48.348;10.980;2023-07-29T04:39:41;5.33;;;4.83;;
14143;SDS011;7152;48.348;10.980;2023-07-29T04:42:07;6.63;;;4.80;;
14143;SDS011;7152;48.348;10.980;2023-07-29T04:44:34;6.00;;;4.80;;
14143;SDS011;7152;48.348;10.980;2023-07-29T04:47:01;6.47;;;4.40;;
14143;SDS011;7152;48.348;10.980;2023-07-29T04:49:27;5.50;;;4.27;;
14143;SDS011;7152;48.348;10.980;2023-07-29T04:51:53;4.67;;;4.10;;
14143;SDS011;7152;48.348;10.980;2023-07-29T04:54:19;4.93;;;4.23;;
14143;SDS011;7152;48.348;10.980;2023-07-29T04:56:46;6.43;;;4.27;;
14143;SDS011;7152;48.348;10.980;2023-07-29T04:59:12;6.10;;;4.40;;
14143;SDS011;7152;48.348;10.980;2023-07-29T05:01:38;6.67;;;4.33;;
14143;SDS011;7152;48.348;10.980;2023-07-29T05:04:04;5.70;;;4.00;;
14143;SDS011;7152;48.348;10.980;2023-07-29T05:06:30;5.07;;;4.37;;
14143;SDS011;7152;48.348;10.980;2023-07-29T05:08:57;4.70;;;4.30;;
14143;SDS011;7152;48.348;10.980;2023-07-29T05:11:23;6.10;;;4.47;;
14143;SDS011;7152;48.348;10.980;2023-07-29T05:13:50;5.73;;;4.17;;
14143;SDS011;7152;48.348;10.980;2023-07-29T05:16:16;4.43;;;4.10;;
14143;SDS011;7152;48.348;10.980;2023-07-29T05:18:42;4.07;;;3.60;;
14143;SDS011;7152;48.348;10.980;2023-07-29T05:21:08;3.97;;;3.53;;
14143;SDS011;7152;48.348;10.980;2023-07-29T05:23:33;4.33;;;3.60;;
14143;SDS011;7152;48.348;10.980;2023-07-29T05:25:59;5.53;;;4.00;;
14143;SDS011;7152;48.348;10.980;2023-07-29T05:28:25;4.70;;;4.17;;
14143;SDS011;7152;48.348;10.980;2023-07-29T05:30:51;4.40;;;4.00;;
14143;SDS011;7152;48.348;10.980;2023-07-29T05:33:18;5.33;;;3.93;;
14143;SDS011;7152;48.348;10.980;2023-07-29T05:35:44;4.23;;;3.83;;
14143;SDS011;7152;48.348;10.980;2023-07-29T05:38:12;4.50;;;4.07;;
14143;SDS011;7152;48.348;10.980;2023-07-29T05:40:38;4.70;;;3.90;;
14143;SDS011;7152;48.348;10.980;2023-07-29T05:43:04;5.17;;;4.20;;
14143;SDS011;7152;48.348;10.980;2023-07-29T05:45:29;5.60;;;4.20;;
14143;SDS011;7152;48.348;10.980;2023-07-29T05:47:56;4.47;;;3.30;;
14143;SDS011;7152;48.348;10.980;2023-07-29T05:50:22;4.40;;;4.00;;
14143;SDS011;7152;48.348;10.980;2023-07-29T05:52:48;4.70;;;3.60;;
14143;SDS011;7152;48.348;10.980;2023-07-29T05:55:14;4.57;;;3.57;;
14143;SDS011;7152;48.348;10.980;2023-07-29T05:57:40;3.60;;;3.30;;
14143;SDS011;7152;48.348;10.980;2023-07-29T06:00:07;5.23;;;3.90;;
14143;SDS011;7152;48.348;10.980;2023-07-29T06:02:39;5.13;;;3.13;;
14143;SDS011;7152;48.348;10.980;2023-07-29T06:05:10;4.97;;;3.23;;
14143;SDS011;7152;48.348;10.980;2023-07-29T06:07:36;4.33;;;3.40;;
14143;SDS011;7152;48.348;10.980;2023-07-29T06:10:03;3.90;;;3.33;;
14143;SDS011;7152;48.348;10.980;2023-07-29T06:12:29;3.33;;;2.90;;
14143;SDS011;7152;48.348;10.980;2023-07-29T06:14:55;3.60;;;3.30;;
14143;SDS011;7152;48.348;10.980;2023-07-29T06:17:21;4.97;;;3.10;;
14143;SDS011;7152;48.348;10.980;2023-07-29T06:19:46;5.13;;;2.80;;
14143;SDS011;7152;48.348;10.980;2023-07-29T06:22:12;3.93;;;3.50;;
14143;SDS011;7152;48.348;10.980;2023-07-29T06:24:38;3.70;;;3.40;;
14143;SDS011;7152;48.348;10.980;2023-07-29T06:27:04;4.27;;;3.03;;
14143;SDS011;7152;48.348;10.980;2023-07-29T06:29:30;4.70;;;3.50;;
14143;SDS011;7152;48.348;10.980;2023-07-29T06:31:56;4.80;;;3.67;;
14143;SDS011;7152;48.348;10.980;2023-07-29T06:34:23;5.60;;;3.70;;
14143;SDS011;7152;48.348;10.980;2023-07-29T06:36:49;3.67;;;3.37;;
14143;SDS011;7152;48.348;10.980;2023-07-29T06:39:15;4.97;;;3.30;;
14143;SDS011;7152;48.348;10.980;2023-07-29T06:41:40;4.43;;;3.60;;
14143;SDS011;7152;48.348;10.980;2023-07-29T06:44:07;4.57;;;3.53;;
14143;SDS011;7152;48.348;10.980;2023-07-29T06:46:33;6.07;;;4.23;;
14143;SDS011;7152;48.348;10.980;2023-07-29T06:48:59;4.53;;;3.77;;
14143;SDS011;7152;48.348;10.980;2023-07-29T06:51:25;6.77;;;4.27;;
14143;SDS011;7152;48.348;10.980;2023-07-29T06:53:50;5.03;;;4.23;;
14143;SDS011;7152;48.348;10.980;2023-07-29T06:56:16;6.13;;;4.10;;
14143;SDS011;7152;48.348;10.980;2023-07-29T06:58:42;4.00;;;3.70;;
14143;SDS011;7152;48.348;10.980;2023-07-29T07:01:08;5.87;;;4.37;;
14143;SDS011;7152;48.348;10.980;2023-07-29T07:03:33;6.43;;;4.27;;
14143;SDS011;7152;48.348;10.980;2023-07-29T07:05:59;4.73;;;4.00;;
14143;SDS011;7152;48.348;10.980;2023-07-29T07:08:25;4.40;;;4.00;;
14143;SDS011;7152;48.348;10.980;2023-07-29T07:10:51;4.90;;;4.30;;
14143;SDS011;7152;48.348;10.980;2023-07-29T07:13:17;4.13;;;3.70;;
14143;SDS011;7152;48.348;10.980;2023-07-29T07:15:43;4.13;;;3.80;;
14143;SDS011;7152;48.348;10.980;2023-07-29T07:18:08;4.27;;;3.87;;
14143;SDS011;7152;48.348;10.980;2023-07-29T07:20:34;4.60;;;4.00;;
14143;SDS011;7152;48.348;10.980;2023-07-29T07:23:00;5.73;;;3.60;;
14143;SDS011;7152;48.348;10.980;2023-07-29T07:25:26;3.73;;;3.43;;
14143;SDS011;7152;48.348;10.980;2023-07-29T07:27:52;3.50;;;3.20;;
14143;SDS011;7152;48.348;10.980;2023-07-29T07:30:18;4.30;;;3.90;;
14143;SDS011;7152;48.348;10.980;2023-07-29T07:32:43;3.37;;;3.07;;
14143;SDS011;7152;48.348;10.980;2023-07-29T07:35:10;4.03;;;3.40;;
14143;SDS011;7152;48.348;10.980;2023-07-29T07:37:36;4.17;;;3.30;;
14143;SDS011;7152;48.348;10.980;2023-07-29T07:40:02;3.87;;;3.57;;
14143;SDS011;7152;48.348;10.980;2023-07-29T07:42:27;3.47;;;3.00;;
14143;SDS011;7152;48.348;10.980;2023-07-29T07:44:53;3.83;;;3.40;;
14143;SDS011;7152;48.348;10.980;2023-07-29T07:47:19;3.97;;;3.27;;
14143;SDS011;7152;48.348;10.980;2023-07-29T07:49:45;3.87;;;3.27;;
14143;SDS011;7152;48.348;10.980;2023-07-29T07:52:11;3.00;;;2.80;;
14143;SDS011;7152;48.348;10.980;2023-07-29T07:54:37;3.70;;;3.40;;
14143;SDS011;7152;48.348;10.980;2023-07-29T07:57:02;3.93;;;3.20;;
14143;SDS011;7152;48.348;10.980;2023-07-29T07:59:29;3.77;;;3.47;;
14143;SDS011;7152;48.348;10.980;2023-07-29T08:01:54;3.40;;;3.10;;
14143;SDS011;7152;48.348;10.980;2023-07-29T08:04:20;4.23;;;3.17;;
14143;SDS011;7152;48.348;10.980;2023-07-29T08:06:46;3.60;;;3.30;;
14143;SDS011;7152;48.348;10.980;2023-07-29T08:09:12;4.03;;;3.23;;
14143;SDS011;7152;48.348;10.980;2023-07-29T08:11:37;3.57;;;3.10;;
14143;SDS011;7152;48.348;10.980;2023-07-29T08:14:03;4.07;;;3.53;;
14143;SDS011;7152;48.348;10.980;2023-07-29T08:16:29;4.10;;;3.70;;
14143;SDS011;7152;48.348;10.980;2023-07-29T08:18:55;4.07;;;3.70;;
14143;SDS011;7152;48.348;10.980;2023-07-29T08:21:21;5.07;;;3.70;;
14143;SDS011;7152;48.348;10.980;2023-07-29T08:23:47;4.83;;;3.80;;
14143;SDS011;7152;48.348;10.980;2023-07-29T08:26:12;4.20;;;3.30;;
14143;SDS011;7152;48.348;10.980;2023-07-29T08:28:38;3.67;;;3.37;;
14143;SDS011;7152;48.348;10.980;2023-07-29T08:31:05;4.20;;;3.30;;
14143;SDS011;7152;48.348;10.980;2023-07-29T08:33:31;3.70;;;3.40;;
14143;SDS011;7152;48.348;10.980;2023-07-29T08:35:59;3.27;;;2.90;;
14143;SDS011;7152;48.348;10.980;2023-07-29T08:38:25;3.97;;;3.67;;
14143;SDS011;7152;48.348;10.980;2023-07-29T08:43:52;3.90;;;3.50;;
14143;SDS011;7152;48.348;10.980;2023-07-29T08:46:31;3.63;;;3.33;;
14143;SDS011;7152;48.348;10.980;2023-07-29T08:48:58;4.23;;;3.83;;
14143;SDS011;7152;48.348;10.980;2023-07-29T08:51:26;3.63;;;3.33;;
14143;SDS011;7152;48.348;10.980;2023-07-29T08:53:53;3.63;;;3.33;;
14143;SDS011;7152;48.348;10.980;2023-07-29T08:56:19;3.97;;;3.37;;
14143;SDS011;7152;48.348;10.980;2023-07-29T08:58:45;4.60;;;4.10;;
14143;SDS011;7152;48.348;10.980;2023-07-29T09:01:11;4.73;;;4.23;;
14143;SDS011;7152;48.348;10.980;2023-07-29T09:03:37;4.97;;;3.63;;
14143;SDS011;7152;48.348;10.980;2023-07-29T09:06:03;5.03;;;3.63;;
14143;SDS011;7152;48.348;10.980;2023-07-29T09:08:29;4.33;;;3.40;;
14143;SDS011;7152;48.348;10.980;2023-07-29T09:10:55;9.60;;;3.73;;
14143;SDS011;7152;48.348;10.980;2023-07-29T09:13:21;4.87;;;3.87;;
14143;SDS011;7152;48.348;10.980;2023-07-29T09:15:47;3.77;;;3.47;;
14143;SDS011;7152;48.348;10.980;2023-07-29T09:18:17;4.93;;;3.73;;
14143;SDS011;7152;48.348;10.980;2023-07-29T09:20:48;5.27;;;3.50;;
14143;SDS011;7152;48.348;10.980;2023-07-29T09:23:15;4.13;;;3.83;;
14143;SDS011;7152;48.348;10.980;2023-07-29T09:25:41;3.73;;;3.43;;
14143;SDS011;7152;48.348;10.980;2023-07-29T09:28:14;4.63;;;3.73;;
14143;SDS011;7152;48.348;10.980;2023-07-29T09:30:41;3.67;;;3.37;;
14143;SDS011;7152;48.348;10.980;2023-07-29T09:33:09;3.93;;;3.60;;
14143;SDS011;7152;48.348;10.980;2023-07-29T09:35:36;3.70;;;3.40;;
14143;SDS011;7152;48.348;10.980;2023-07-29T09:38:03;3.57;;;3.27;;
14143;SDS011;7152;48.348;10.980;2023-07-29T09:40:34;4.10;;;3.10;;
14143;SDS011;7152;48.348;10.980;2023-07-29T09:43:01;3.10;;;2.80;;
14143;SDS011;7152;48.348;10.980;2023-07-29T09:45:27;3.95;;;2.95;;
14143;SDS011;7152;48.348;10.980;2023-07-29T09:47:53;2.97;;;2.78;;
14143;SDS011;7152;48.348;10.980;2023-07-29T09:50:25;3.83;;;3.33;;
14143;SDS011;7152;48.348;10.980;2023-07-29T09:52:52;3.38;;;3.08;;
14143;SDS011;7152;48.348;10.980;2023-07-29T09:55:20;3.10;;;2.88;;
14143;SDS011;7152;48.348;10.980;2023-07-29T09:57:47;3.00;;;2.80;;
14143;SDS011;7152;48.348;10.980;2023-07-29T10:00:13;3.90;;;3.03;;
14143;SDS011;7152;48.348;10.980;2023-07-29T10:02:43;3.90;;;3.15;;
14143;SDS011;7152;48.348;10.980;2023-07-29T10:05:09;3.67;;;2.72;;
14143;SDS011;7152;48.348;10.980;2023-07-29T10:07:38;3.97;;;3.45;;
14143;SDS011;7152;48.348;10.980;2023-07-29T10:10:05;3.80;;;3.50;;
14143;SDS011;7152;48.348;10.980;2023-07-29T10:12:33;2.70;;;2.50;;
14143;SDS011;7152;48.348;10.980;2023-07-29T10:15:00;2.93;;;2.73;;
14143;SDS011;7152;48.348;10.980;2023-07-29T10:17:29;2.47;;;2.27;;
14143;SDS011;7152;48.348;10.980;2023-07-29T10:19:56;6.30;;;3.33;;
14143;SDS011;7152;48.348;10.980;2023-07-29T10:22:26;7.70;;;3.30;;
14143;SDS011;7152;48.348;10.980;2023-07-29T10:24:56;25.37;;;5.10;;
14143;SDS011;7152;48.348;10.980;2023-07-29T10:27:27;6.63;;;4.00;;
14143;SDS011;7152;48.348;10.980;2023-07-29T10:29:55;4.73;;;2.77;;
14143;SDS011;7152;48.348;10.980;2023-07-29T10:32:23;4.23;;;2.80;;
14143;SDS011;7152;48.348;10.980;2023-07-29T10:34:51;4.47;;;3.40;;
14143;SDS011;7152;48.348;10.980;2023-07-29T10:37:17;5.60;;;3.57;;
14143;SDS011;7152;48.348;10.980;2023-07-29T10:39:54;5.47;;;3.87;;
14143;SDS011;7152;48.348;10.980;2023-07-29T10:42:20;3.73;;;3.40;;
14143;SDS011;7152;48.348;10.980;2023-07-29T10:44:50;4.43;;;4.03;;
14143;SDS011;7152;48.348;10.980;2023-07-29T10:49:47;4.03;;;3.30;;
14143;SDS011;7152;48.348;10.980;2023-07-29T10:52:16;4.20;;;3.80;;
14143;SDS011;7152;48.348;10.980;2023-07-29T10:54:52;3.90;;;3.50;;
14143;SDS011;7152;48.348;10.980;2023-07-29T10:57:34;4.23;;;3.83;;
14143;SDS011;7152;48.348;10.980;2023-07-29T11:00:02;4.00;;;3.53;;
14143;SDS011;7152;48.348;10.980;2023-07-29T11:02:31;4.63;;;4.13;;
14143;SDS011;7152;48.348;10.980;2023-07-29T11:04:58;4.53;;;3.90;;
14143;SDS011;7152;48.348;10.980;2023-07-29T11:07:25;4.90;;;4.10;;
14143;SDS011;7152;48.348;10.980;2023-07-29T11:09:53;3.80;;;3.50;;
14143;SDS011;7152;48.348;10.980;2023-07-29T11:15:00;4.43;;;3.30;;
14143;SDS011;7152;48.348;10.980;2023-07-29T11:17:34;4.10;;;3.47;;
14143;SDS011;7152;48.348;10.980;2023-07-29T11:20:01;3.97;;;3.67;;
14143;SDS011;7152;48.348;10.980;2023-07-29T11:22:28;3.70;;;3.40;;
14143;SDS011;7152;48.348;10.980;2023-07-29T11:24:55;3.70;;;3.40;;
14143;SDS011;7152;48.348;10.980;2023-07-29T11:27:21;4.00;;;2.90;;
14143;SDS011;7152;48.348;10.980;2023-07-29T11:29:47;3.40;;;3.10;;
14143;SDS011;7152;48.348;10.980;2023-07-29T11:32:13;4.00;;;2.83;;
14143;SDS011;7152;48.348;10.980;2023-07-29T11:34:40;4.30;;;2.80;;
14143;SDS011;7152;48.348;10.980;2023-07-29T11:37:08;3.40;;;3.10;;
14143;SDS011;7152;48.348;10.980;2023-07-29T11:39:39;3.63;;;3.13;;
14143;SDS011;7152;48.348;10.980;2023-07-29T11:42:06;4.30;;;3.50;;
14143;SDS011;7152;48.348;10.980;2023-07-29T11:44:36;3.43;;;3.13;;
14143;SDS011;7152;48.348;10.980;2023-07-29T11:47:02;4.10;;;3.80;;
14143;SDS011;7152;48.348;10.980;2023-07-29T11:49:32;3.80;;;3.50;;
14143;SDS011;7152;48.348;10.980;2023-07-29T11:51:58;4.07;;;3.73;;
14143;SDS011;7152;48.348;10.980;2023-07-29T11:54:24;4.50;;;4.10;;
14143;SDS011;7152;48.348;10.980;2023-07-29T11:56:51;4.33;;;4.03;;
14143;SDS011;7152;48.348;10.980;2023-07-29T11:59:16;4.50;;;4.10;;
14143;SDS011;7152;48.348;10.980;2023-07-29T12:01:42;4.80;;;4.40;;
14143;SDS011;7152;48.348;10.980;2023-07-29T12:04:08;4.70;;;4.30;;
14143;SDS011;7152;48.348;10.980;2023-07-29T12:06:35;4.50;;;4.10;;
14143;SDS011;7152;48.348;10.980;2023-07-29T12:09:01;4.77;;;4.37;;
14143;SDS011;7152;48.348;10.980;2023-07-29T12:11:27;4.73;;;4.33;;
14143;SDS011;7152;48.348;10.980;2023-07-29T12:13:53;4.40;;;4.00;;
14143;SDS011;7152;48.348;10.980;2023-07-29T12:16:19;4.23;;;3.53;;
14143;SDS011;7152;48.348;10.980;2023-07-29T12:18:45;4.10;;;3.70;;
14143;SDS011;7152;48.348;10.980;2023-07-29T12:21:13;3.40;;;3.17;;
14143;SDS011;7152;48.348;10.980;2023-07-29T12:23:40;3.73;;;3.43;;
14143;SDS011;7152;48.348;10.980;2023-07-29T12:26:05;3.00;;;2.80;;
14143;SDS011;7152;48.348;10.980;2023-07-29T12:28:31;3.58;;;3.28;;
14143;SDS011;7152;48.348;10.980;2023-07-29T12:30:57;3.45;;;3.20;;
14143;SDS011;7152;48.348;10.980;2023-07-29T12:33:36;3.33;;;2.97;;
14143;SDS011;7152;48.348;10.980;2023-07-29T12:36:07;3.65;;;3.10;;
14143;SDS011;7152;48.348;10.980;2023-07-29T12:38:36;3.13;;;2.78;;
14143;SDS011;7152;48.348;10.980;2023-07-29T12:41:02;3.67;;;3.38;;
14143;SDS011;7152;48.348;10.980;2023-07-29T12:43:28;3.15;;;2.90;;
14143;SDS011;7152;48.348;10.980;2023-07-29T12:45:54;3.42;;;2.95;;
14143;SDS011;7152;48.348;10.980;2023-07-29T12:48:22;2.97;;;2.78;;
14143;SDS011;7152;48.348;10.980;2023-07-29T12:50:48;3.22;;;2.92;;
14143;SDS011;7152;48.348;10.980;2023-07-29T12:53:14;2.60;;;2.30;;
14143;SDS011;7152;48.348;10.980;2023-07-29T12:55:40;2.50;;;2.20;;
14143;SDS011;7152;48.348;10.980;2023-07-29T12:58:06;3.00;;;2.75;;
14143;SDS011;7152;48.348;10.980;2023-07-29T13:00:32;2.85;;;2.55;;
14143;SDS011;7152;48.348;10.980;2023-07-29T13:02:57;2.55;;;2.28;;
14143;SDS011;7152;48.348;10.980;2023-07-29T13:05:23;2.63;;;2.35;;
14143;SDS011;7152;48.348;10.980;2023-07-29T13:07:49;2.72;;;2.53;;
14143;SDS011;7152;48.348;10.980;2023-07-29T13:10:15;2.85;;;2.38;;
14143;SDS011;7152;48.348;10.980;2023-07-29T13:12:41;2.60;;;2.40;;
14143;SDS011;7152;48.348;10.980;2023-07-29T13:15:07;2.60;;;2.40;;
14143;SDS011;7152;48.348;10.980;2023-07-29T13:17:33;2.92;;;2.55;;
14143;SDS011;7152;48.348;10.980;2023-07-29T13:19:59;2.60;;;2.40;;
14143;SDS011;7152;48.348;10.980;2023-07-29T13:22:25;2.78;;;2.58;;
14143;SDS011;7152;48.348;10.980;2023-07-29T13:24:51;2.30;;;2.10;;
14143;SDS011;7152;48.348;10.980;2023-07-29T13:27:17;2.63;;;2.40;;
14143;SDS011;7152;48.348;10.980;2023-07-29T13:29:42;2.65;;;2.35;;
14143;SDS011;7152;48.348;10.980;2023-07-29T13:32:09;2.40;;;2.20;;
14143;SDS011;7152;48.348;10.980;2023-07-29T13:34:35;2.28;;;2.08;;
14143;SDS011;7152;48.348;10.980;2023-07-29T13:37:01;2.35;;;2.15;;
14143;SDS011;7152;48.348;10.980;2023-07-29T13:39:27;2.17;;;2.00;;
14143;SDS011;7152;48.348;10.980;2023-07-29T13:41:53;2.20;;;2.00;;
14143;SDS011;7152;48.348;10.980;2023-07-29T13:44:19;3.25;;;2.30;;
14143;SDS011;7152;48.348;10.980;2023-07-29T13:46:45;2.58;;;1.98;;
14143;SDS011;7152;48.348;10.980;2023-07-29T13:49:11;2.60;;;2.40;;
14143;SDS011;7152;48.348;10.980;2023-07-29T13:51:37;2.15;;;1.92;;
14143;SDS011;7152;48.348;10.980;2023-07-29T13:54:03;2.08;;;1.88;;
14143;SDS011;7152;48.348;10.980;2023-07-29T13:56:28;2.40;;;2.20;;
14143;SDS011;7152;48.348;10.980;2023-07-29T13:58:54;2.00;;;1.83;;
14143;SDS011;7152;48.348;10.980;2023-07-29T14:01:20;3.80;;;2.35;;
14143;SDS011;7152;48.348;10.980;2023-07-29T14:03:46;2.17;;;2.00;;
14143;SDS011;7152;48.348;10.980;2023-07-29T14:06:12;2.00;;;1.80;;
14143;SDS011;7152;48.348;10.980;2023-07-29T14:08:37;1.95;;;1.77;;
14143;SDS011;7152;48.348;10.980;2023-07-29T14:11:06;2.20;;;2.08;;
14143;SDS011;7152;48.348;10.980;2023-07-29T14:13:31;2.40;;;2.20;;
14143;SDS011;7152;48.348;10.980;2023-07-29T14:15:59;4.20;;;2.05;;
14143;SDS011;7152;48.348;10.980;2023-07-29T14:18:28;2.35;;;2.15;;
14143;SDS011;7152;48.348;10.980;2023-07-29T14:20:55;2.17;;;1.90;;
14143;SDS011;7152;48.348;10.980;2023-07-29T14:23:21;2.35;;;2.15;;
14143;SDS011;7152;48.348;10.980;2023-07-29T14:25:46;2.22;;;2.03;;
14143;SDS011;7152;48.348;10.980;2023-07-29T14:28:13;2.40;;;2.20;;
14143;SDS011;7152;48.348;10.980;2023-07-29T14:30:39;2.38;;;2.17;;
14143;SDS011;7152;48.348;10.980;2023-07-29T14:33:06;2.35;;;2.13;;
14143;SDS011;7152;48.348;10.980;2023-07-29T14:35:33;3.40;;;2.20;;
14143;SDS011;7152;48.348;10.980;2023-07-29T14:37:58;2.60;;;2.40;;
14143;SDS011;7152;48.348;10.980;2023-07-29T14:40:24;2.75;;;2.30;;
14143;SDS011;7152;48.348;10.980;2023-07-29T14:42:50;2.80;;;2.60;;
14143;SDS011;7152;48.348;10.980;2023-07-29T14:45:16;2.78;;;2.25;;
14143;SDS011;7152;48.348;10.980;2023-07-29T14:47:42;2.35;;;2.13;;
14143;SDS011;7152;48.348;10.980;2023-07-29T14:50:08;2.83;;;2.20;;
14143;SDS011;7152;48.348;10.980;2023-07-29T14:52:34;2.80;;;2.15;;
14143;SDS011;7152;48.348;10.980;2023-07-29T14:54:59;3.97;;;2.03;;
14143;SDS011;7152;48.348;10.980;2023-07-29T14:57:25;2.83;;;2.10;;